sensor_id;sensor_type;location;lat;lon;timestamp;pressure;altitude;pressure_sealevel;temperature
12061;BMP180;6091;51.432;6.880;2023-12-20T00:02:25;100714.00;;;23.10
12061;BMP180;6091;51.432;6.880;2023-12-20T00:04:53;100717.00;;;23.10
12061;BMP180;6091;51.432;6.880;2023-12-20T00:07:22;100718.00;;;23.10
12061;BMP180;6091;51.432;6.880;2023-12-20T00:09:49;100713.00;;;23.10
12061;BMP180;6091;51.432;6.880;2023-12-20T00:12:17;100705.00;;;23.10
12061;BMP180;6091;51.432;6.880;2023-12-20T00:14:44;100714.00;;;23.10
12061;BMP180;6091;51.432;6.880;2023-12-20T00:17:11;100714.00;;;23.10
12061;BMP180;6091;51.432;6.880;2023-12-20T00:19:38;100733.00;;;23.10
12061;BMP180;6091;51.432;6.880;2023-12-20T00:22:06;100732.00;;;23.10
12061;BMP180;6091;51.432;6.880;2023-12-20T00:24:33;100720.00;;;23.10
12061;BMP180;6091;51.432;6.880;2023-12-20T00:27:00;100726.00;;;23.10
12061;BMP180;6091;51.432;6.880;2023-12-20T00:29:27;100737.00;;;23.00
12061;BMP180;6091;51.432;6.880;2023-12-20T00:31:54;100745.00;;;23.00
12061;BMP180;6091;51.432;6.880;2023-12-20T00:34:22;100733.00;;;23.00
12061;BMP180;6091;51.432;6.880;2023-12-20T00:36:49;100746.00;;;23.00
12061;BMP180;6091;51.432;6.880;2023-12-20T00:39:16;100735.00;;;23.00
12061;BMP180;6091;51.432;6.880;2023-12-20T00:41:43;100730.00;;;23.00
12061;BMP180;6091;51.432;6.880;2023-12-20T00:44:10;100732.00;;;23.00
12061;BMP180;6091;51.432;6.880;2023-12-20T00:46:37;100745.00;;;23.00
12061;BMP180;6091;51.432;6.880;2023-12-20T00:49:04;100750.00;;;23.00
12061;BMP180;6091;51.432;6.880;2023-12-20T00:51:31;100754.00;;;23.00
12061;BMP180;6091;51.432;6.880;2023-12-20T00:53:58;100762.00;;;23.00
12061;BMP180;6091;51.432;6.880;2023-12-20T00:56:25;100765.00;;;23.00
12061;BMP180;6091;51.432;6.880;2023-12-20T00:58:52;100763.00;;;22.90
12061;BMP180;6091;51.432;6.880;2023-12-20T01:01:20;100758.00;;;22.90
12061;BMP180;6091;51.432;6.880;2023-12-20T01:03:48;100757.00;;;22.90
12061;BMP180;6091;51.432;6.880;2023-12-20T01:06:18;100759.00;;;22.90
12061;BMP180;6091;51.432;6.880;2023-12-20T01:08:45;100762.00;;;22.90
12061;BMP180;6091;51.432;6.880;2023-12-20T01:11:12;100762.00;;;22.90
12061;BMP180;6091;51.432;6.880;2023-12-20T01:13:40;100761.00;;;22.90
12061;BMP180;6091;51.432;6.880;2023-12-20T01:16:10;100760.00;;;22.90
12061;BMP180;6091;51.432;6.880;2023-12-20T01:18:37;100766.00;;;22.90
12061;BMP180;6091;51.432;6.880;2023-12-20T01:21:06;100763.00;;;22.90
12061;BMP180;6091;51.432;6.880;2023-12-20T01:23:33;100765.00;;;22.90
12061;BMP180;6091;51.432;6.880;2023-12-20T01:26:00;100776.00;;;22.90
12061;BMP180;6091;51.432;6.880;2023-12-20T01:28:27;100773.00;;;22.90
12061;BMP180;6091;51.432;6.880;2023-12-20T01:30:54;100761.00;;;22.80
12061;BMP180;6091;51.432;6.880;2023-12-20T01:33:22;100774.00;;;22.90
12061;BMP180;6091;51.432;6.880;2023-12-20T01:35:50;100777.00;;;22.80
12061;BMP180;6091;51.432;6.880;2023-12-20T01:38:17;100770.00;;;22.80
12061;BMP180;6091;51.432;6.880;2023-12-20T01:40:45;100783.00;;;22.80
12061;BMP180;6091;51.432;6.880;2023-12-20T01:43:13;100779.00;;;22.80
12061;BMP180;6091;51.432;6.880;2023-12-20T01:45:40;100769.00;;;22.80
12061;BMP180;6091;51.432;6.880;2023-12-20T01:48:08;100771.00;;;22.80
12061;BMP180;6091;51.432;6.880;2023-12-20T01:50:37;100779.00;;;22.80
12061;BMP180;6091;51.432;6.880;2023-12-20T01:53:07;100773.00;;;22.80
12061;BMP180;6091;51.432;6.880;2023-12-20T01:55:39;100765.00;;;22.80
12061;BMP180;6091;51.432;6.880;2023-12-20T01:58:08;100762.00;;;22.80
12061;BMP180;6091;51.432;6.880;2023-12-20T02:00:37;100771.00;;;22.80
12061;BMP180;6091;51.432;6.880;2023-12-20T02:03:04;100773.00;;;22.80
12061;BMP180;6091;51.432;6.880;2023-12-20T02:05:35;100765.00;;;22.80
12061;BMP180;6091;51.432;6.880;2023-12-20T02:08:02;100773.00;;;22.70
12061;BMP180;6091;51.432;6.880;2023-12-20T02:10:30;100784.00;;;22.70
12061;BMP180;6091;51.432;6.880;2023-12-20T02:12:57;100771.00;;;22.70
12061;BMP180;6091;51.432;6.880;2023-12-20T02:15:25;100772.00;;;22.70
12061;BMP180;6091;51.432;6.880;2023-12-20T02:17:52;100772.00;;;22.70
12061;BMP180;6091;51.432;6.880;2023-12-20T02:20:20;100774.00;;;22.70
12061;BMP180;6091;51.432;6.880;2023-12-20T02:22:47;100771.00;;;22.70
12061;BMP180;6091;51.432;6.880;2023-12-20T02:25:14;100769.00;;;22.70
12061;BMP180;6091;51.432;6.880;2023-12-20T02:27:41;100765.00;;;22.70
12061;BMP180;6091;51.432;6.880;2023-12-20T02:30:10;100779.00;;;22.70
12061;BMP180;6091;51.432;6.880;2023-12-20T02:32:37;100778.00;;;22.70
12061;BMP180;6091;51.432;6.880;2023-12-20T02:35:05;100781.00;;;22.60
12061;BMP180;6091;51.432;6.880;2023-12-20T02:37:33;100782.00;;;22.60
12061;BMP180;6091;51.432;6.880;2023-12-20T02:40:00;100789.00;;;22.60
12061;BMP180;6091;51.432;6.880;2023-12-20T02:42:28;100791.00;;;22.60
12061;BMP180;6091;51.432;6.880;2023-12-20T02:44:55;100778.00;;;22.60
12061;BMP180;6091;51.432;6.880;2023-12-20T02:47:22;100776.00;;;22.60
12061;BMP180;6091;51.432;6.880;2023-12-20T02:49:49;100776.00;;;22.60
12061;BMP180;6091;51.432;6.880;2023-12-20T02:52:16;100780.00;;;22.60
12061;BMP180;6091;51.432;6.880;2023-12-20T02:54:44;100779.00;;;22.60
12061;BMP180;6091;51.432;6.880;2023-12-20T02:57:11;100788.00;;;22.60
12061;BMP180;6091;51.432;6.880;2023-12-20T02:59:38;100790.00;;;22.60
12061;BMP180;6091;51.432;6.880;2023-12-20T03:02:05;100791.00;;;22.60
12061;BMP180;6091;51.432;6.880;2023-12-20T03:04:32;100798.00;;;22.60
12061;BMP180;6091;51.432;6.880;2023-12-20T03:07:01;100785.00;;;22.50
12061;BMP180;6091;51.432;6.880;2023-12-20T03:09:28;100786.00;;;22.50
12061;BMP180;6091;51.432;6.880;2023-12-20T03:12:04;100785.00;;;22.50
12061;BMP180;6091;51.432;6.880;2023-12-20T03:14:31;100785.00;;;22.50
12061;BMP180;6091;51.432;6.880;2023-12-20T03:16:58;100778.00;;;22.50
12061;BMP180;6091;51.432;6.880;2023-12-20T03:19:26;100777.00;;;22.50
12061;BMP180;6091;51.432;6.880;2023-12-20T03:21:53;100776.00;;;22.50
12061;BMP180;6091;51.432;6.880;2023-12-20T03:24:21;100767.00;;;22.50
12061;BMP180;6091;51.432;6.880;2023-12-20T03:26:48;100771.00;;;22.50
12061;BMP180;6091;51.432;6.880;2023-12-20T03:29:15;100770.00;;;22.50
12061;BMP180;6091;51.432;6.880;2023-12-20T03:31:42;100764.00;;;22.50
12061;BMP180;6091;51.432;6.880;2023-12-20T03:34:09;100757.00;;;22.50
12061;BMP180;6091;51.432;6.880;2023-12-20T03:36:36;100755.00;;;22.40
12061;BMP180;6091;51.432;6.880;2023-12-20T03:39:03;100758.00;;;22.40
12061;BMP180;6091;51.432;6.880;2023-12-20T03:41:30;100766.00;;;22.40
12061;BMP180;6091;51.432;6.880;2023-12-20T03:43:57;100763.00;;;22.40
12061;BMP180;6091;51.432;6.880;2023-12-20T03:46:24;100758.00;;;22.40
12061;BMP180;6091;51.432;6.880;2023-12-20T03:48:51;100757.00;;;22.40
12061;BMP180;6091;51.432;6.880;2023-12-20T03:51:18;100758.00;;;22.40
12061;BMP180;6091;51.432;6.880;2023-12-20T03:53:45;100770.00;;;22.40
12061;BMP180;6091;51.432;6.880;2023-12-20T03:56:14;100760.00;;;22.40
12061;BMP180;6091;51.432;6.880;2023-12-20T03:58:41;100768.00;;;22.40
12061;BMP180;6091;51.432;6.880;2023-12-20T04:01:12;100749.00;;;22.40
12061;BMP180;6091;51.432;6.880;2023-12-20T04:03:39;100743.00;;;22.30
12061;BMP180;6091;51.432;6.880;2023-12-20T04:06:09;100745.00;;;22.30
12061;BMP180;6091;51.432;6.880;2023-12-20T04:08:36;100751.00;;;22.30
12061;BMP180;6091;51.432;6.880;2023-12-20T04:11:03;100747.00;;;22.30
12061;BMP180;6091;51.432;6.880;2023-12-20T04:13:30;100760.00;;;22.30
12061;BMP180;6091;51.432;6.880;2023-12-20T04:15:58;100749.00;;;22.30
12061;BMP180;6091;51.432;6.880;2023-12-20T04:18:25;100762.00;;;22.30
12061;BMP180;6091;51.432;6.880;2023-12-20T04:20:52;100764.00;;;22.30
12061;BMP180;6091;51.432;6.880;2023-12-20T04:23:19;100763.00;;;22.30
12061;BMP180;6091;51.432;6.880;2023-12-20T04:25:46;100762.00;;;22.30
12061;BMP180;6091;51.432;6.880;2023-12-20T04:28:13;100752.00;;;22.30
12061;BMP180;6091;51.432;6.880;2023-12-20T04:30:41;100749.00;;;22.30
12061;BMP180;6091;51.432;6.880;2023-12-20T04:33:09;100752.00;;;22.30
12061;BMP180;6091;51.432;6.880;2023-12-20T04:35:36;100766.00;;;22.30
12061;BMP180;6091;51.432;6.880;2023-12-20T04:38:03;100762.00;;;22.30
12061;BMP180;6091;51.432;6.880;2023-12-20T04:40:30;100767.00;;;22.20
12061;BMP180;6091;51.432;6.880;2023-12-20T04:42:57;100774.00;;;22.20
12061;BMP180;6091;51.432;6.880;2023-12-20T04:45:26;100768.00;;;22.20
12061;BMP180;6091;51.432;6.880;2023-12-20T04:47:53;100757.00;;;22.20
12061;BMP180;6091;51.432;6.880;2023-12-20T04:50:20;100772.00;;;22.20
12061;BMP180;6091;51.432;6.880;2023-12-20T04:52:48;100770.00;;;22.20
12061;BMP180;6091;51.432;6.880;2023-12-20T04:55:15;100773.00;;;22.20
12061;BMP180;6091;51.432;6.880;2023-12-20T04:57:42;100776.00;;;22.20
12061;BMP180;6091;51.432;6.880;2023-12-20T05:00:11;100765.00;;;22.20
12061;BMP180;6091;51.432;6.880;2023-12-20T05:02:39;100758.00;;;22.20
12061;BMP180;6091;51.432;6.880;2023-12-20T05:05:06;100762.00;;;22.20
12061;BMP180;6091;51.432;6.880;2023-12-20T05:07:33;100771.00;;;22.20
12061;BMP180;6091;51.432;6.880;2023-12-20T05:10:03;100768.00;;;22.20
12061;BMP180;6091;51.432;6.880;2023-12-20T05:12:31;100774.00;;;22.20
12061;BMP180;6091;51.432;6.880;2023-12-20T05:14:58;100764.00;;;22.20
12061;BMP180;6091;51.432;6.880;2023-12-20T05:17:26;100758.00;;;22.20
12061;BMP180;6091;51.432;6.880;2023-12-20T05:19:53;100756.00;;;22.20
12061;BMP180;6091;51.432;6.880;2023-12-20T05:22:20;100767.00;;;22.10
12061;BMP180;6091;51.432;6.880;2023-12-20T05:24:48;100771.00;;;22.20
12061;BMP180;6091;51.432;6.880;2023-12-20T05:27:16;100767.00;;;22.10
12061;BMP180;6091;51.432;6.880;2023-12-20T05:29:43;100762.00;;;22.10
12061;BMP180;6091;51.432;6.880;2023-12-20T05:32:10;100762.00;;;22.10
12061;BMP180;6091;51.432;6.880;2023-12-20T05:34:37;100759.00;;;22.10
12061;BMP180;6091;51.432;6.880;2023-12-20T05:37:04;100757.00;;;22.10
12061;BMP180;6091;51.432;6.880;2023-12-20T05:39:31;100753.00;;;22.10
12061;BMP180;6091;51.432;6.880;2023-12-20T05:41:58;100744.00;;;22.10
12061;BMP180;6091;51.432;6.880;2023-12-20T05:44:25;100743.00;;;22.10
12061;BMP180;6091;51.432;6.880;2023-12-20T05:46:53;100733.00;;;22.10
12061;BMP180;6091;51.432;6.880;2023-12-20T05:49:20;100745.00;;;22.10
12061;BMP180;6091;51.432;6.880;2023-12-20T05:51:49;100747.00;;;22.10
12061;BMP180;6091;51.432;6.880;2023-12-20T05:54:18;100751.00;;;22.10
12061;BMP180;6091;51.432;6.880;2023-12-20T05:56:46;100756.00;;;22.10
12061;BMP180;6091;51.432;6.880;2023-12-20T05:59:13;100760.00;;;22.10
12061;BMP180;6091;51.432;6.880;2023-12-20T06:01:40;100762.00;;;22.00
12061;BMP180;6091;51.432;6.880;2023-12-20T06:04:07;100760.00;;;22.10
12061;BMP180;6091;51.432;6.880;2023-12-20T06:06:41;100761.00;;;22.10
12061;BMP180;6091;51.432;6.880;2023-12-20T06:09:10;100753.00;;;22.10
12061;BMP180;6091;51.432;6.880;2023-12-20T06:11:37;100746.00;;;22.30
12061;BMP180;6091;51.432;6.880;2023-12-20T06:14:04;100750.00;;;22.40
12061;BMP180;6091;51.432;6.880;2023-12-20T06:16:31;100751.00;;;22.60
12061;BMP180;6091;51.432;6.880;2023-12-20T06:18:58;100754.00;;;22.80
12061;BMP180;6091;51.432;6.880;2023-12-20T06:21:26;100762.00;;;23.00
12061;BMP180;6091;51.432;6.880;2023-12-20T06:23:53;100763.00;;;23.20
12061;BMP180;6091;51.432;6.880;2023-12-20T06:26:20;100758.00;;;23.30
12061;BMP180;6091;51.432;6.880;2023-12-20T06:28:47;100765.00;;;23.50
12061;BMP180;6091;51.432;6.880;2023-12-20T06:31:14;100771.00;;;23.70
12061;BMP180;6091;51.432;6.880;2023-12-20T06:33:43;100769.00;;;23.90
12061;BMP180;6091;51.432;6.880;2023-12-20T06:36:14;100765.00;;;24.10
12061;BMP180;6091;51.432;6.880;2023-12-20T06:38:41;100756.00;;;24.30
12061;BMP180;6091;51.432;6.880;2023-12-20T06:41:15;100749.00;;;24.40
12061;BMP180;6091;51.432;6.880;2023-12-20T06:43:42;100757.00;;;24.60
12061;BMP180;6091;51.432;6.880;2023-12-20T06:46:16;100770.00;;;24.80
12061;BMP180;6091;51.432;6.880;2023-12-20T06:48:44;100776.00;;;24.90
12061;BMP180;6091;51.432;6.880;2023-12-20T06:51:16;100772.00;;;25.10
12061;BMP180;6091;51.432;6.880;2023-12-20T06:53:44;100776.00;;;25.20
12061;BMP180;6091;51.432;6.880;2023-12-20T06:56:12;100779.00;;;25.30
12061;BMP180;6091;51.432;6.880;2023-12-20T06:58:46;100771.00;;;25.40
12061;BMP180;6091;51.432;6.880;2023-12-20T07:01:14;100764.00;;;25.50
12061;BMP180;6091;51.432;6.880;2023-12-20T07:03:42;100773.00;;;25.60
12061;BMP180;6091;51.432;6.880;2023-12-20T07:06:09;100772.00;;;25.70
12061;BMP180;6091;51.432;6.880;2023-12-20T07:08:37;100761.00;;;25.80
12061;BMP180;6091;51.432;6.880;2023-12-20T07:11:04;100765.00;;;25.90
12061;BMP180;6091;51.432;6.880;2023-12-20T07:13:31;100760.00;;;25.90
12061;BMP180;6091;51.432;6.880;2023-12-20T07:15:58;100773.00;;;26.00
12061;BMP180;6091;51.432;6.880;2023-12-20T07:18:25;100763.00;;;26.10
12061;BMP180;6091;51.432;6.880;2023-12-20T07:20:52;100764.00;;;26.10
12061;BMP180;6091;51.432;6.880;2023-12-20T07:23:24;100775.00;;;26.10
12061;BMP180;6091;51.432;6.880;2023-12-20T07:25:52;100775.00;;;26.20
12061;BMP180;6091;51.432;6.880;2023-12-20T07:28:26;100782.00;;;26.20
12061;BMP180;6091;51.432;6.880;2023-12-20T07:30:53;100774.00;;;26.20
12061;BMP180;6091;51.432;6.880;2023-12-20T07:33:20;100772.00;;;26.20
12061;BMP180;6091;51.432;6.880;2023-12-20T07:35:48;100780.00;;;26.20
12061;BMP180;6091;51.432;6.880;2023-12-20T07:38:16;100771.00;;;26.20
12061;BMP180;6091;51.432;6.880;2023-12-20T07:40:43;100774.00;;;26.20
12061;BMP180;6091;51.432;6.880;2023-12-20T07:43:10;100770.00;;;26.20
12061;BMP180;6091;51.432;6.880;2023-12-20T07:45:37;100774.00;;;26.20
12061;BMP180;6091;51.432;6.880;2023-12-20T07:48:07;100785.00;;;26.20
12061;BMP180;6091;51.432;6.880;2023-12-20T07:50:34;100785.00;;;26.20
12061;BMP180;6091;51.432;6.880;2023-12-20T07:53:02;100769.00;;;26.20
12061;BMP180;6091;51.432;6.880;2023-12-20T07:55:30;100784.00;;;26.20
12061;BMP180;6091;51.432;6.880;2023-12-20T07:57:59;100785.00;;;26.20
12061;BMP180;6091;51.432;6.880;2023-12-20T08:00:26;100793.00;;;26.20
12061;BMP180;6091;51.432;6.880;2023-12-20T08:02:54;100776.00;;;26.20
12061;BMP180;6091;51.432;6.880;2023-12-20T08:05:21;100777.00;;;26.20
12061;BMP180;6091;51.432;6.880;2023-12-20T08:07:48;100771.00;;;26.20
12061;BMP180;6091;51.432;6.880;2023-12-20T08:10:15;100777.00;;;26.20
12061;BMP180;6091;51.432;6.880;2023-12-20T08:12:43;100781.00;;;26.20
12061;BMP180;6091;51.432;6.880;2023-12-20T08:15:10;100791.00;;;26.20
12061;BMP180;6091;51.432;6.880;2023-12-20T08:17:37;100786.00;;;26.20
12061;BMP180;6091;51.432;6.880;2023-12-20T08:20:05;100781.00;;;26.20
12061;BMP180;6091;51.432;6.880;2023-12-20T08:22:33;100780.00;;;26.20
12061;BMP180;6091;51.432;6.880;2023-12-20T08:25:00;100785.00;;;26.20
12061;BMP180;6091;51.432;6.880;2023-12-20T08:27:28;100778.00;;;26.30
12061;BMP180;6091;51.432;6.880;2023-12-20T08:29:55;100782.00;;;26.30
12061;BMP180;6091;51.432;6.880;2023-12-20T08:32:25;100774.00;;;26.40
12061;BMP180;6091;51.432;6.880;2023-12-20T08:34:53;100773.00;;;26.40
12061;BMP180;6091;51.432;6.880;2023-12-20T08:37:20;100793.00;;;26.40
12061;BMP180;6091;51.432;6.880;2023-12-20T08:39:47;100804.00;;;26.50
12061;BMP180;6091;51.432;6.880;2023-12-20T08:42:14;100800.00;;;26.50
12061;BMP180;6091;51.432;6.880;2023-12-20T08:44:44;100802.00;;;26.60
12061;BMP180;6091;51.432;6.880;2023-12-20T08:47:11;100802.00;;;26.60
12061;BMP180;6091;51.432;6.880;2023-12-20T08:49:40;100793.00;;;26.60
12061;BMP180;6091;51.432;6.880;2023-12-20T08:52:07;100798.00;;;26.70
12061;BMP180;6091;51.432;6.880;2023-12-20T08:54:34;100793.00;;;26.70
12061;BMP180;6091;51.432;6.880;2023-12-20T08:57:01;100789.00;;;26.70
12061;BMP180;6091;51.432;6.880;2023-12-20T08:59:28;100797.00;;;26.80
12061;BMP180;6091;51.432;6.880;2023-12-20T09:01:55;100797.00;;;27.10
12061;BMP180;6091;51.432;6.880;2023-12-20T09:04:23;100790.00;;;26.90
12061;BMP180;6091;51.432;6.880;2023-12-20T09:06:50;100790.00;;;26.90
12061;BMP180;6091;51.432;6.880;2023-12-20T09:09:17;100776.00;;;26.90
12061;BMP180;6091;51.432;6.880;2023-12-20T09:11:44;100777.00;;;26.90
12061;BMP180;6091;51.432;6.880;2023-12-20T09:14:13;100779.00;;;26.90
12061;BMP180;6091;51.432;6.880;2023-12-20T09:16:40;100770.00;;;26.90
12061;BMP180;6091;51.432;6.880;2023-12-20T09:19:08;100778.00;;;26.90
12061;BMP180;6091;51.432;6.880;2023-12-20T09:21:35;100772.00;;;26.90
12061;BMP180;6091;51.432;6.880;2023-12-20T09:24:02;100763.00;;;26.90
12061;BMP180;6091;51.432;6.880;2023-12-20T09:26:29;100770.00;;;26.90
12061;BMP180;6091;51.432;6.880;2023-12-20T09:28:56;100767.00;;;26.90
12061;BMP180;6091;51.432;6.880;2023-12-20T09:31:23;100765.00;;;26.90
12061;BMP180;6091;51.432;6.880;2023-12-20T09:33:51;100765.00;;;26.90
12061;BMP180;6091;51.432;6.880;2023-12-20T09:36:18;100757.00;;;26.80
12061;BMP180;6091;51.432;6.880;2023-12-20T09:38:45;100761.00;;;26.80
12061;BMP180;6091;51.432;6.880;2023-12-20T09:41:13;100772.00;;;26.80
12061;BMP180;6091;51.432;6.880;2023-12-20T09:43:45;100779.00;;;26.80
12061;BMP180;6091;51.432;6.880;2023-12-20T09:46:16;100774.00;;;26.80
12061;BMP180;6091;51.432;6.880;2023-12-20T09:48:46;100777.00;;;26.80
12061;BMP180;6091;51.432;6.880;2023-12-20T09:51:15;100782.00;;;26.80
12061;BMP180;6091;51.432;6.880;2023-12-20T09:53:43;100768.00;;;26.80
12061;BMP180;6091;51.432;6.880;2023-12-20T09:56:11;100766.00;;;26.80
12061;BMP180;6091;51.432;6.880;2023-12-20T09:58:39;100778.00;;;26.80
12061;BMP180;6091;51.432;6.880;2023-12-20T10:01:08;100776.00;;;26.80
12061;BMP180;6091;51.432;6.880;2023-12-20T10:03:39;100772.00;;;26.80
12061;BMP180;6091;51.432;6.880;2023-12-20T10:06:08;100772.00;;;26.80
12061;BMP180;6091;51.432;6.880;2023-12-20T10:08:36;100767.00;;;26.80
12061;BMP180;6091;51.432;6.880;2023-12-20T10:11:03;100763.00;;;26.70
12061;BMP180;6091;51.432;6.880;2023-12-20T10:13:31;100769.00;;;26.70
12061;BMP180;6091;51.432;6.880;2023-12-20T10:15:59;100761.00;;;26.70
12061;BMP180;6091;51.432;6.880;2023-12-20T10:18:29;100747.00;;;26.70
12061;BMP180;6091;51.432;6.880;2023-12-20T10:21:06;100760.00;;;26.60
12061;BMP180;6091;51.432;6.880;2023-12-20T10:23:37;100754.00;;;26.50
12061;BMP180;6091;51.432;6.880;2023-12-20T10:26:06;100757.00;;;26.50
12061;BMP180;6091;51.432;6.880;2023-12-20T10:28:34;100747.00;;;26.50
12061;BMP180;6091;51.432;6.880;2023-12-20T10:31:02;100755.00;;;26.50
12061;BMP180;6091;51.432;6.880;2023-12-20T10:33:31;100752.00;;;26.50
12061;BMP180;6091;51.432;6.880;2023-12-20T10:36:05;100747.00;;;26.50
12061;BMP180;6091;51.432;6.880;2023-12-20T10:38:35;100745.00;;;26.50
12061;BMP180;6091;51.432;6.880;2023-12-20T10:41:06;100749.00;;;26.50
12061;BMP180;6091;51.432;6.880;2023-12-20T10:43:36;100733.00;;;26.50
12061;BMP180;6091;51.432;6.880;2023-12-20T10:46:05;100735.00;;;26.50
12061;BMP180;6091;51.432;6.880;2023-12-20T10:48:34;100732.00;;;26.60
12061;BMP180;6091;51.432;6.880;2023-12-20T10:51:02;100735.00;;;26.60
12061;BMP180;6091;51.432;6.880;2023-12-20T10:53:31;100732.00;;;26.60
12061;BMP180;6091;51.432;6.880;2023-12-20T10:56:02;100731.00;;;26.60
12061;BMP180;6091;51.432;6.880;2023-12-20T10:58:33;100738.00;;;26.60
12061;BMP180;6091;51.432;6.880;2023-12-20T11:01:02;100736.00;;;26.70
12061;BMP180;6091;51.432;6.880;2023-12-20T11:03:35;100737.00;;;26.70
12061;BMP180;6091;51.432;6.880;2023-12-20T11:06:27;100745.00;;;26.70
12061;BMP180;6091;51.432;6.880;2023-12-20T11:11:57;100740.00;;;26.80
12061;BMP180;6091;51.432;6.880;2023-12-20T11:17:10;100746.00;;;26.90
12061;BMP180;6091;51.432;6.880;2023-12-20T11:22:25;100726.00;;;26.90
12061;BMP180;6091;51.432;6.880;2023-12-20T11:24:53;100717.00;;;26.90
12061;BMP180;6091;51.432;6.880;2023-12-20T11:27:24;100720.00;;;26.90
12061;BMP180;6091;51.432;6.880;2023-12-20T11:29:52;100719.00;;;27.00
12061;BMP180;6091;51.432;6.880;2023-12-20T11:37:35;100720.00;;;27.00
12061;BMP180;6091;51.432;6.880;2023-12-20T11:40:11;100705.00;;;27.00
12061;BMP180;6091;51.432;6.880;2023-12-20T11:42:40;100715.00;;;27.00
12061;BMP180;6091;51.432;6.880;2023-12-20T11:45:19;100705.00;;;27.00
12061;BMP180;6091;51.432;6.880;2023-12-20T11:47:51;100707.00;;;27.00
12061;BMP180;6091;51.432;6.880;2023-12-20T11:50:20;100713.00;;;27.00
12061;BMP180;6091;51.432;6.880;2023-12-20T11:52:49;100710.00;;;27.00
12061;BMP180;6091;51.432;6.880;2023-12-20T11:55:16;100697.00;;;27.00
12061;BMP180;6091;51.432;6.880;2023-12-20T11:57:43;100703.00;;;27.00
12061;BMP180;6091;51.432;6.880;2023-12-20T12:00:14;100704.00;;;27.00
12061;BMP180;6091;51.432;6.880;2023-12-20T12:02:41;100703.00;;;27.00
12061;BMP180;6091;51.432;6.880;2023-12-20T12:05:10;100686.00;;;27.00
12061;BMP180;6091;51.432;6.880;2023-12-20T12:07:38;100690.00;;;27.00
12061;BMP180;6091;51.432;6.880;2023-12-20T12:10:06;100697.00;;;26.90
12061;BMP180;6091;51.432;6.880;2023-12-20T12:12:35;100696.00;;;26.90
12061;BMP180;6091;51.432;6.880;2023-12-20T12:15:03;100692.00;;;27.20
12061;BMP180;6091;51.432;6.880;2023-12-20T12:17:30;100682.00;;;27.00
12061;BMP180;6091;51.432;6.880;2023-12-20T12:20:05;100679.00;;;27.00
12061;BMP180;6091;51.432;6.880;2023-12-20T12:22:33;100681.00;;;26.90
12061;BMP180;6091;51.432;6.880;2023-12-20T12:25:11;100678.00;;;26.90
12061;BMP180;6091;51.432;6.880;2023-12-20T12:27:43;100675.00;;;26.90
12061;BMP180;6091;51.432;6.880;2023-12-20T12:30:11;100684.00;;;26.90
12061;BMP180;6091;51.432;6.880;2023-12-20T12:32:40;100690.00;;;26.90
12061;BMP180;6091;51.432;6.880;2023-12-20T12:35:09;100686.00;;;26.80
12061;BMP180;6091;51.432;6.880;2023-12-20T12:37:41;100677.00;;;26.90
12061;BMP180;6091;51.432;6.880;2023-12-20T12:40:15;100666.00;;;26.80
12061;BMP180;6091;51.432;6.880;2023-12-20T12:42:44;100665.00;;;26.80
12061;BMP180;6091;51.432;6.880;2023-12-20T12:45:12;100659.00;;;26.80
12061;BMP180;6091;51.432;6.880;2023-12-20T12:47:40;100663.00;;;26.80
12061;BMP180;6091;51.432;6.880;2023-12-20T12:50:08;100654.00;;;26.80
12061;BMP180;6091;51.432;6.880;2023-12-20T12:52:36;100659.00;;;26.80
12061;BMP180;6091;51.432;6.880;2023-12-20T12:55:06;100659.00;;;26.80
12061;BMP180;6091;51.432;6.880;2023-12-20T12:57:33;100656.00;;;26.80
12061;BMP180;6091;51.432;6.880;2023-12-20T13:00:01;100664.00;;;26.80
12061;BMP180;6091;51.432;6.880;2023-12-20T13:02:30;100654.00;;;26.80
12061;BMP180;6091;51.432;6.880;2023-12-20T13:04:57;100653.00;;;26.80
12061;BMP180;6091;51.432;6.880;2023-12-20T13:07:25;100645.00;;;26.90
12061;BMP180;6091;51.432;6.880;2023-12-20T13:09:52;100644.00;;;26.90
12061;BMP180;6091;51.432;6.880;2023-12-20T13:12:19;100646.00;;;26.90
12061;BMP180;6091;51.432;6.880;2023-12-20T13:14:47;100621.00;;;26.90
12061;BMP180;6091;51.432;6.880;2023-12-20T13:17:14;100624.00;;;26.90
12061;BMP180;6091;51.432;6.880;2023-12-20T13:19:42;100609.00;;;27.10
12061;BMP180;6091;51.432;6.880;2023-12-20T13:22:10;100617.00;;;27.10
12061;BMP180;6091;51.432;6.880;2023-12-20T13:24:38;100614.00;;;27.10
12061;BMP180;6091;51.432;6.880;2023-12-20T13:27:06;100619.00;;;27.20
12061;BMP180;6091;51.432;6.880;2023-12-20T13:29:33;100614.00;;;27.20
12061;BMP180;6091;51.432;6.880;2023-12-20T13:32:05;100598.00;;;27.20
12061;BMP180;6091;51.432;6.880;2023-12-20T13:34:32;100597.00;;;27.30
12061;BMP180;6091;51.432;6.880;2023-12-20T13:37:00;100596.00;;;27.30
12061;BMP180;6091;51.432;6.880;2023-12-20T13:39:28;100600.00;;;27.30
12061;BMP180;6091;51.432;6.880;2023-12-20T13:41:55;100602.00;;;27.40
12061;BMP180;6091;51.432;6.880;2023-12-20T13:44:27;100595.00;;;27.40
12061;BMP180;6091;51.432;6.880;2023-12-20T13:46:54;100596.00;;;27.40
12061;BMP180;6091;51.432;6.880;2023-12-20T13:49:22;100592.00;;;27.40
12061;BMP180;6091;51.432;6.880;2023-12-20T13:51:54;100588.00;;;27.40
12061;BMP180;6091;51.432;6.880;2023-12-20T13:54:22;100590.00;;;27.50
12061;BMP180;6091;51.432;6.880;2023-12-20T13:56:49;100586.00;;;27.50
12061;BMP180;6091;51.432;6.880;2023-12-20T13:59:35;100574.00;;;27.50
12061;BMP180;6091;51.432;6.880;2023-12-20T14:02:02;100578.00;;;27.50
12061;BMP180;6091;51.432;6.880;2023-12-20T14:04:31;100586.00;;;27.50
12061;BMP180;6091;51.432;6.880;2023-12-20T14:07:10;100593.00;;;27.50
12061;BMP180;6091;51.432;6.880;2023-12-20T14:09:40;100593.00;;;27.50
12061;BMP180;6091;51.432;6.880;2023-12-20T14:12:14;100589.00;;;27.50
12061;BMP180;6091;51.432;6.880;2023-12-20T14:14:42;100572.00;;;27.50
12061;BMP180;6091;51.432;6.880;2023-12-20T14:17:09;100581.00;;;27.60
12061;BMP180;6091;51.432;6.880;2023-12-20T14:19:36;100589.00;;;27.60
12061;BMP180;6091;51.432;6.880;2023-12-20T14:22:04;100583.00;;;27.60
12061;BMP180;6091;51.432;6.880;2023-12-20T14:24:32;100572.00;;;27.60
12061;BMP180;6091;51.432;6.880;2023-12-20T14:27:01;100564.00;;;27.60
12061;BMP180;6091;51.432;6.880;2023-12-20T14:29:29;100567.00;;;27.60